Ark, Virginia
Current Conditions -  °F | °C
As of 2:55 AM on Thursday 27 Nov 2014 (Local Time) from KFYJ Reporting Station
Clear Clear  
Wind Chill: 37°   Ceiling: Unl
Heat Index: 37°   Visibility: 7mi
Dew Point: 34°   Wind: 0mph
Humidity: 91%   Direction: NA
Pressure: 30.05"   Gusts: NA
Location:  37.44°N, 76.58°W
Report Text: KFYJ 270755Z AUTO 00000KT 7SM CLR 03/01 A3005 RMK AO2 T00250012
Loading
Personal Weather Stations






























Interactive Weather Map New forecast layout! Learn more

10-Day Weather Forecast

Advertisements
Track Severe Weather on mobile